sensor_id;sensor_type;location;lat;lon;timestamp;P1;durP1;ratioP1;P2;durP2;ratioP2
7795;SDS011;3942;51.518;6.912;2023-06-22T00:01:23;8.77;;;6.38;;
7795;SDS011;3942;51.518;6.912;2023-06-22T00:06:25;10.55;;;6.80;;
7795;SDS011;3942;51.518;6.912;2023-06-22T00:11:29;9.75;;;6.95;;
7795;SDS011;3942;51.518;6.912;2023-06-22T00:16:33;10.45;;;6.18;;
7795;SDS011;3942;51.518;6.912;2023-06-22T00:21:35;9.65;;;6.18;;
7795;SDS011;3942;51.518;6.912;2023-06-22T00:26:39;11.00;;;6.72;;
7795;SDS011;3942;51.518;6.912;2023-06-22T00:31:41;11.05;;;6.75;;
7795;SDS011;3942;51.518;6.912;2023-06-22T00:36:43;12.63;;;7.72;;
7795;SDS011;3942;51.518;6.912;2023-06-22T00:41:47;10.00;;;7.50;;
7795;SDS011;3942;51.518;6.912;2023-06-22T00:46:49;13.50;;;7.45;;
7795;SDS011;3942;51.518;6.912;2023-06-22T00:51:51;14.77;;;8.30;;
7795;SDS011;3942;51.518;6.912;2023-06-22T00:56:55;9.95;;;7.57;;
7795;SDS011;3942;51.518;6.912;2023-06-22T01:01:57;11.73;;;8.07;;
7795;SDS011;3942;51.518;6.912;2023-06-22T01:07:02;11.20;;;8.02;;
7795;SDS011;3942;51.518;6.912;2023-06-22T01:12:07;13.15;;;8.90;;
7795;SDS011;3942;51.518;6.912;2023-06-22T01:17:10;11.15;;;7.60;;
7795;SDS011;3942;51.518;6.912;2023-06-22T01:22:16;11.40;;;7.38;;
7795;SDS011;3942;51.518;6.912;2023-06-22T01:27:26;11.43;;;7.90;;
7795;SDS011;3942;51.518;6.912;2023-06-22T01:32:36;12.13;;;9.57;;
7795;SDS011;3942;51.518;6.912;2023-06-22T01:37:39;12.38;;;8.40;;
7795;SDS011;3942;51.518;6.912;2023-06-22T01:42:41;13.60;;;9.20;;
7795;SDS011;3942;51.518;6.912;2023-06-22T01:47:45;14.30;;;8.68;;
7795;SDS011;3942;51.518;6.912;2023-06-22T01:52:47;11.73;;;9.25;;
7795;SDS011;3942;51.518;6.912;2023-06-22T01:57:49;11.52;;;8.32;;
7795;SDS011;3942;51.518;6.912;2023-06-22T02:02:53;10.48;;;8.90;;
7795;SDS011;3942;51.518;6.912;2023-06-22T02:08:00;14.43;;;9.45;;
7795;SDS011;3942;51.518;6.912;2023-06-22T02:13:06;12.07;;;9.32;;
7795;SDS011;3942;51.518;6.912;2023-06-22T02:18:09;16.52;;;9.90;;
7795;SDS011;3942;51.518;6.912;2023-06-22T02:23:11;13.60;;;9.27;;
7795;SDS011;3942;51.518;6.912;2023-06-22T02:28:14;12.93;;;9.65;;
7795;SDS011;3942;51.518;6.912;2023-06-22T02:33:17;12.90;;;10.27;;
7795;SDS011;3942;51.518;6.912;2023-06-22T02:38:19;14.65;;;10.75;;
7795;SDS011;3942;51.518;6.912;2023-06-22T02:43:24;14.88;;;10.82;;
7795;SDS011;3942;51.518;6.912;2023-06-22T02:48:28;17.02;;;13.63;;
7795;SDS011;3942;51.518;6.912;2023-06-22T02:53:30;13.13;;;10.88;;
7795;SDS011;3942;51.518;6.912;2023-06-22T02:58:32;20.50;;;12.15;;
7795;SDS011;3942;51.518;6.912;2023-06-22T03:03:39;22.02;;;13.60;;
7795;SDS011;3942;51.518;6.912;2023-06-22T03:08:41;16.60;;;12.48;;
7795;SDS011;3942;51.518;6.912;2023-06-22T03:13:44;16.88;;;13.70;;
7795;SDS011;3942;51.518;6.912;2023-06-22T03:18:48;15.07;;;12.40;;
7795;SDS011;3942;51.518;6.912;2023-06-22T03:23:50;15.35;;;12.73;;
7795;SDS011;3942;51.518;6.912;2023-06-22T03:28:52;15.27;;;12.98;;
7795;SDS011;3942;51.518;6.912;2023-06-22T03:33:55;17.55;;;13.65;;
7795;SDS011;3942;51.518;6.912;2023-06-22T03:38:57;17.23;;;13.00;;
7795;SDS011;3942;51.518;6.912;2023-06-22T03:44:00;22.63;;;13.75;;
7795;SDS011;3942;51.518;6.912;2023-06-22T03:49:03;19.13;;;14.35;;
7795;SDS011;3942;51.518;6.912;2023-06-22T03:54:05;15.50;;;13.25;;
7795;SDS011;3942;51.518;6.912;2023-06-22T03:59:07;16.33;;;13.68;;
7795;SDS011;3942;51.518;6.912;2023-06-22T04:04:11;22.35;;;15.55;;
7795;SDS011;3942;51.518;6.912;2023-06-22T04:09:13;20.10;;;15.43;;
7795;SDS011;3942;51.518;6.912;2023-06-22T04:14:15;22.30;;;14.95;;
7795;SDS011;3942;51.518;6.912;2023-06-22T04:19:18;17.52;;;15.35;;
7795;SDS011;3942;51.518;6.912;2023-06-22T04:24:21;22.17;;;16.65;;
7795;SDS011;3942;51.518;6.912;2023-06-22T04:29:23;18.88;;;14.70;;
7795;SDS011;3942;51.518;6.912;2023-06-22T04:34:30;22.42;;;16.38;;
7795;SDS011;3942;51.518;6.912;2023-06-22T04:39:32;20.50;;;15.88;;
7795;SDS011;3942;51.518;6.912;2023-06-22T04:44:34;21.05;;;16.70;;
7795;SDS011;3942;51.518;6.912;2023-06-22T04:49:37;22.77;;;16.73;;
7795;SDS011;3942;51.518;6.912;2023-06-22T04:54:40;20.08;;;16.05;;
7795;SDS011;3942;51.518;6.912;2023-06-22T05:04:51;23.85;;;17.27;;
7795;SDS011;3942;51.518;6.912;2023-06-22T05:09:56;22.85;;;17.10;;
7795;SDS011;3942;51.518;6.912;2023-06-22T05:14:59;19.80;;;16.15;;
7795;SDS011;3942;51.518;6.912;2023-06-22T05:20:03;20.67;;;16.80;;
7795;SDS011;3942;51.518;6.912;2023-06-22T05:25:08;20.67;;;16.50;;
7795;SDS011;3942;51.518;6.912;2023-06-22T05:30:11;19.67;;;16.23;;
7795;SDS011;3942;51.518;6.912;2023-06-22T05:35:14;29.77;;;24.00;;
7795;SDS011;3942;51.518;6.912;2023-06-22T05:40:16;22.70;;;15.70;;
7795;SDS011;3942;51.518;6.912;2023-06-22T05:45:18;23.90;;;16.85;;
7795;SDS011;3942;51.518;6.912;2023-06-22T05:50:22;26.55;;;18.35;;
7795;SDS011;3942;51.518;6.912;2023-06-22T05:55:24;24.92;;;17.33;;
7795;SDS011;3942;51.518;6.912;2023-06-22T06:00:26;23.17;;;19.02;;
7795;SDS011;3942;51.518;6.912;2023-06-22T06:05:30;30.02;;;22.20;;
7795;SDS011;3942;51.518;6.912;2023-06-22T06:10:32;26.27;;;19.48;;
7795;SDS011;3942;51.518;6.912;2023-06-22T06:15:34;36.83;;;28.60;;
7795;SDS011;3942;51.518;6.912;2023-06-22T06:20:37;25.75;;;21.17;;
7795;SDS011;3942;51.518;6.912;2023-06-22T06:25:40;27.52;;;19.92;;
7795;SDS011;3942;51.518;6.912;2023-06-22T06:30:42;32.47;;;27.23;;
7795;SDS011;3942;51.518;6.912;2023-06-22T06:35:45;27.52;;;21.58;;
7795;SDS011;3942;51.518;6.912;2023-06-22T06:40:47;33.45;;;25.85;;
7795;SDS011;3942;51.518;6.912;2023-06-22T06:45:49;34.58;;;22.83;;
7795;SDS011;3942;51.518;6.912;2023-06-22T06:50:53;26.23;;;22.30;;
7795;SDS011;3942;51.518;6.912;2023-06-22T06:55:55;31.02;;;25.15;;
7795;SDS011;3942;51.518;6.912;2023-06-22T07:00:57;32.97;;;26.17;;
7795;SDS011;3942;51.518;6.912;2023-06-22T07:06:06;30.20;;;25.52;;
7795;SDS011;3942;51.518;6.912;2023-06-22T07:11:08;30.65;;;22.83;;
7795;SDS011;3942;51.518;6.912;2023-06-22T07:16:10;28.67;;;22.92;;
7795;SDS011;3942;51.518;6.912;2023-06-22T07:21:14;28.52;;;23.30;;
7795;SDS011;3942;51.518;6.912;2023-06-22T07:26:16;31.33;;;23.55;;
7795;SDS011;3942;51.518;6.912;2023-06-22T07:31:21;32.03;;;22.23;;
7795;SDS011;3942;51.518;6.912;2023-06-22T07:36:26;26.58;;;21.80;;
7795;SDS011;3942;51.518;6.912;2023-06-22T07:41:30;26.15;;;21.85;;
7795;SDS011;3942;51.518;6.912;2023-06-22T07:46:32;27.55;;;21.42;;
7795;SDS011;3942;51.518;6.912;2023-06-22T07:51:36;28.17;;;22.35;;
7795;SDS011;3942;51.518;6.912;2023-06-22T07:56:38;33.53;;;23.30;;
7795;SDS011;3942;51.518;6.912;2023-06-22T08:01:40;28.35;;;23.85;;
7795;SDS011;3942;51.518;6.912;2023-06-22T08:06:46;28.30;;;22.42;;
7795;SDS011;3942;51.518;6.912;2023-06-22T08:11:49;29.30;;;22.20;;
7795;SDS011;3942;51.518;6.912;2023-06-22T08:16:50;30.88;;;24.70;;
7795;SDS011;3942;51.518;6.912;2023-06-22T08:21:54;30.10;;;23.70;;
7795;SDS011;3942;51.518;6.912;2023-06-22T08:26:56;28.75;;;23.60;;
7795;SDS011;3942;51.518;6.912;2023-06-22T08:31:58;29.83;;;23.80;;
7795;SDS011;3942;51.518;6.912;2023-06-22T08:37:01;28.88;;;25.05;;
7795;SDS011;3942;51.518;6.912;2023-06-22T08:42:18;34.42;;;24.92;;
7795;SDS011;3942;51.518;6.912;2023-06-22T08:47:21;35.92;;;25.77;;
7795;SDS011;3942;51.518;6.912;2023-06-22T08:52:24;33.03;;;25.90;;
7795;SDS011;3942;51.518;6.912;2023-06-22T08:57:26;30.83;;;24.70;;
7795;SDS011;3942;51.518;6.912;2023-06-22T09:02:29;31.38;;;24.98;;
7795;SDS011;3942;51.518;6.912;2023-06-22T09:07:32;29.45;;;24.02;;
7795;SDS011;3942;51.518;6.912;2023-06-22T09:12:34;30.17;;;24.40;;
7795;SDS011;3942;51.518;6.912;2023-06-22T09:17:37;28.60;;;24.73;;
7795;SDS011;3942;51.518;6.912;2023-06-22T09:22:41;25.75;;;21.63;;
7795;SDS011;3942;51.518;6.912;2023-06-22T09:27:43;27.23;;;22.20;;
7795;SDS011;3942;51.518;6.912;2023-06-22T09:32:45;25.65;;;22.40;;
7795;SDS011;3942;51.518;6.912;2023-06-22T09:37:51;28.10;;;22.25;;
7795;SDS011;3942;51.518;6.912;2023-06-22T09:42:54;23.40;;;20.73;;
7795;SDS011;3942;51.518;6.912;2023-06-22T09:47:55;25.67;;;20.15;;
7795;SDS011;3942;51.518;6.912;2023-06-22T09:52:59;28.58;;;21.98;;
7795;SDS011;3942;51.518;6.912;2023-06-22T09:58:03;26.80;;;21.17;;
7795;SDS011;3942;51.518;6.912;2023-06-22T10:03:06;25.33;;;21.85;;
7795;SDS011;3942;51.518;6.912;2023-06-22T10:08:11;30.52;;;21.45;;
7795;SDS011;3942;51.518;6.912;2023-06-22T10:13:13;28.52;;;21.23;;
7795;SDS011;3942;51.518;6.912;2023-06-22T10:18:19;25.50;;;20.55;;
7795;SDS011;3942;51.518;6.912;2023-06-22T10:23:22;24.02;;;20.25;;
7795;SDS011;3942;51.518;6.912;2023-06-22T10:28:24;21.80;;;19.35;;
7795;SDS011;3942;51.518;6.912;2023-06-22T10:33:26;25.20;;;20.45;;
7795;SDS011;3942;51.518;6.912;2023-06-22T10:38:30;22.75;;;17.92;;
7795;SDS011;3942;51.518;6.912;2023-06-22T10:43:32;20.95;;;17.38;;
7795;SDS011;3942;51.518;6.912;2023-06-22T10:48:34;21.00;;;16.38;;
7795;SDS011;3942;51.518;6.912;2023-06-22T10:53:38;22.58;;;15.70;;
7795;SDS011;3942;51.518;6.912;2023-06-22T10:58:41;20.35;;;15.10;;
7795;SDS011;3942;51.518;6.912;2023-06-22T11:03:43;19.42;;;14.68;;
7795;SDS011;3942;51.518;6.912;2023-06-22T11:08:47;19.33;;;14.93;;
7795;SDS011;3942;51.518;6.912;2023-06-22T11:13:50;16.60;;;14.45;;
7795;SDS011;3942;51.518;6.912;2023-06-22T11:18:52;18.52;;;14.50;;
7795;SDS011;3942;51.518;6.912;2023-06-22T11:23:56;16.90;;;14.80;;
7795;SDS011;3942;51.518;6.912;2023-06-22T11:28:58;21.60;;;15.40;;
7795;SDS011;3942;51.518;6.912;2023-06-22T11:34:05;26.30;;;17.47;;
7795;SDS011;3942;51.518;6.912;2023-06-22T11:39:08;19.15;;;16.88;;
7795;SDS011;3942;51.518;6.912;2023-06-22T11:44:12;21.75;;;17.58;;
7795;SDS011;3942;51.518;6.912;2023-06-22T11:49:15;24.50;;;19.73;;
7795;SDS011;3942;51.518;6.912;2023-06-22T11:54:18;22.55;;;19.23;;
7795;SDS011;3942;51.518;6.912;2023-06-22T11:59:20;26.38;;;21.65;;
7795;SDS011;3942;51.518;6.912;2023-06-22T12:04:22;29.23;;;23.58;;
7795;SDS011;3942;51.518;6.912;2023-06-22T12:09:30;33.50;;;27.13;;
7795;SDS011;3942;51.518;6.912;2023-06-22T12:14:32;37.17;;;27.67;;
7795;SDS011;3942;51.518;6.912;2023-06-22T12:19:34;35.85;;;28.70;;
7795;SDS011;3942;51.518;6.912;2023-06-22T12:24:39;34.22;;;30.33;;
7795;SDS011;3942;51.518;6.912;2023-06-22T12:29:41;43.92;;;33.63;;
7795;SDS011;3942;51.518;6.912;2023-06-22T12:34:43;47.97;;;34.70;;
7795;SDS011;3942;51.518;6.912;2023-06-22T12:39:46;43.15;;;35.15;;
7795;SDS011;3942;51.518;6.912;2023-06-22T12:44:48;49.38;;;39.60;;
7795;SDS011;3942;51.518;6.912;2023-06-22T12:49:50;52.97;;;38.38;;
7795;SDS011;3942;51.518;6.912;2023-06-22T12:54:54;49.10;;;38.63;;
7795;SDS011;3942;51.518;6.912;2023-06-22T12:59:56;52.08;;;40.75;;
7795;SDS011;3942;51.518;6.912;2023-06-22T13:04:58;47.22;;;38.83;;
7795;SDS011;3942;51.518;6.912;2023-06-22T13:10:02;45.75;;;38.63;;
7795;SDS011;3942;51.518;6.912;2023-06-22T13:15:05;46.58;;;38.83;;
7795;SDS011;3942;51.518;6.912;2023-06-22T13:20:08;49.83;;;39.00;;
7795;SDS011;3942;51.518;6.912;2023-06-22T13:25:11;47.88;;;38.97;;
7795;SDS011;3942;51.518;6.912;2023-06-22T13:30:15;47.97;;;39.05;;
7795;SDS011;3942;51.518;6.912;2023-06-22T13:35:17;44.88;;;38.90;;
7795;SDS011;3942;51.518;6.912;2023-06-22T13:40:20;51.80;;;38.53;;
7795;SDS011;3942;51.518;6.912;2023-06-22T13:45:22;48.55;;;38.75;;
7795;SDS011;3942;51.518;6.912;2023-06-22T13:50:24;48.30;;;37.70;;
7795;SDS011;3942;51.518;6.912;2023-06-22T13:55:27;47.38;;;38.05;;
7795;SDS011;3942;51.518;6.912;2023-06-22T14:00:30;46.90;;;36.53;;
7795;SDS011;3942;51.518;6.912;2023-06-22T14:05:33;45.30;;;37.20;;
7795;SDS011;3942;51.518;6.912;2023-06-22T14:10:36;48.45;;;40.47;;
7795;SDS011;3942;51.518;6.912;2023-06-22T14:15:38;47.80;;;38.58;;
7795;SDS011;3942;51.518;6.912;2023-06-22T14:20:40;46.25;;;37.88;;
7795;SDS011;3942;51.518;6.912;2023-06-22T14:25:43;42.33;;;36.85;;
7795;SDS011;3942;51.518;6.912;2023-06-22T14:30:45;45.58;;;37.97;;
7795;SDS011;3942;51.518;6.912;2023-06-22T14:35:47;42.53;;;35.10;;
7795;SDS011;3942;51.518;6.912;2023-06-22T14:40:51;43.15;;;33.70;;
7795;SDS011;3942;51.518;6.912;2023-06-22T14:45:53;46.25;;;37.28;;
7795;SDS011;3942;51.518;6.912;2023-06-22T14:50:56;46.80;;;36.35;;
7795;SDS011;3942;51.518;6.912;2023-06-22T14:56:02;46.22;;;37.17;;
7795;SDS011;3942;51.518;6.912;2023-06-22T15:01:04;47.42;;;37.80;;
7795;SDS011;3942;51.518;6.912;2023-06-22T15:06:08;43.50;;;36.95;;
7795;SDS011;3942;51.518;6.912;2023-06-22T15:11:11;54.78;;;45.10;;
7795;SDS011;3942;51.518;6.912;2023-06-22T15:16:13;44.13;;;37.45;;
7795;SDS011;3942;51.518;6.912;2023-06-22T15:21:16;46.90;;;38.58;;
7795;SDS011;3942;51.518;6.912;2023-06-22T15:26:19;45.67;;;38.03;;
7795;SDS011;3942;51.518;6.912;2023-06-22T15:31:22;45.70;;;36.90;;
7795;SDS011;3942;51.518;6.912;2023-06-22T15:36:24;45.25;;;37.08;;
7795;SDS011;3942;51.518;6.912;2023-06-22T15:41:27;39.55;;;33.25;;
7795;SDS011;3942;51.518;6.912;2023-06-22T15:46:29;37.08;;;32.75;;
7795;SDS011;3942;51.518;6.912;2023-06-22T15:51:32;37.40;;;31.63;;
7795;SDS011;3942;51.518;6.912;2023-06-22T15:56:35;36.97;;;30.83;;
7795;SDS011;3942;51.518;6.912;2023-06-22T16:01:37;29.65;;;24.67;;
7795;SDS011;3942;51.518;6.912;2023-06-22T16:06:39;28.48;;;22.58;;
7795;SDS011;3942;51.518;6.912;2023-06-22T16:11:43;31.08;;;24.45;;
7795;SDS011;3942;51.518;6.912;2023-06-22T16:16:45;33.33;;;25.23;;
7795;SDS011;3942;51.518;6.912;2023-06-22T16:21:47;35.25;;;28.85;;
7795;SDS011;3942;51.518;6.912;2023-06-22T16:26:51;38.95;;;29.05;;
7795;SDS011;3942;51.518;6.912;2023-06-22T16:31:53;33.70;;;26.25;;
7795;SDS011;3942;51.518;6.912;2023-06-22T16:36:55;36.88;;;28.65;;
7795;SDS011;3942;51.518;6.912;2023-06-22T16:41:59;29.10;;;20.88;;
7795;SDS011;3942;51.518;6.912;2023-06-22T16:47:01;28.48;;;22.52;;
7795;SDS011;3942;51.518;6.912;2023-06-22T16:52:05;26.15;;;20.33;;
7795;SDS011;3942;51.518;6.912;2023-06-22T16:57:08;35.10;;;27.52;;
7795;SDS011;3942;51.518;6.912;2023-06-22T17:02:12;35.35;;;24.85;;
7795;SDS011;3942;51.518;6.912;2023-06-22T17:07:17;33.67;;;27.10;;
7795;SDS011;3942;51.518;6.912;2023-06-22T17:12:21;30.55;;;24.25;;
7795;SDS011;3942;51.518;6.912;2023-06-22T17:17:23;31.55;;;24.45;;
7795;SDS011;3942;51.518;6.912;2023-06-22T17:22:28;36.55;;;27.83;;
7795;SDS011;3942;51.518;6.912;2023-06-22T17:27:36;45.80;;;31.50;;
7795;SDS011;3942;51.518;6.912;2023-06-22T17:32:39;56.47;;;42.47;;
7795;SDS011;3942;51.518;6.912;2023-06-22T17:37:47;60.10;;;42.85;;
7795;SDS011;3942;51.518;6.912;2023-06-22T17:42:52;78.57;;;59.97;;
7795;SDS011;3942;51.518;6.912;2023-06-22T17:48:04;82.57;;;63.80;;
7795;SDS011;3942;51.518;6.912;2023-06-22T17:53:11;83.45;;;58.30;;
7795;SDS011;3942;51.518;6.912;2023-06-22T17:58:15;82.25;;;56.28;;
7795;SDS011;3942;51.518;6.912;2023-06-22T18:03:18;81.07;;;62.45;;
7795;SDS011;3942;51.518;6.912;2023-06-22T18:08:25;73.20;;;54.80;;
7795;SDS011;3942;51.518;6.912;2023-06-22T18:13:28;65.50;;;46.35;;
7795;SDS011;3942;51.518;6.912;2023-06-22T18:18:31;52.60;;;41.47;;
7795;SDS011;3942;51.518;6.912;2023-06-22T18:23:33;80.88;;;50.15;;
7795;SDS011;3942;51.518;6.912;2023-06-22T18:28:37;53.72;;;40.10;;
7795;SDS011;3942;51.518;6.912;2023-06-22T18:33:40;42.17;;;29.98;;
7795;SDS011;3942;51.518;6.912;2023-06-22T18:38:42;41.97;;;32.67;;
7795;SDS011;3942;51.518;6.912;2023-06-22T18:43:52;41.10;;;32.60;;
7795;SDS011;3942;51.518;6.912;2023-06-22T18:48:57;51.08;;;38.90;;
7795;SDS011;3942;51.518;6.912;2023-06-22T18:54:01;60.08;;;45.10;;
7795;SDS011;3942;51.518;6.912;2023-06-22T18:59:08;54.35;;;43.95;;
7795;SDS011;3942;51.518;6.912;2023-06-22T19:04:14;53.15;;;41.90;;
7795;SDS011;3942;51.518;6.912;2023-06-22T19:09:17;56.78;;;44.00;;
7795;SDS011;3942;51.518;6.912;2023-06-22T19:14:21;57.38;;;42.17;;
7795;SDS011;3942;51.518;6.912;2023-06-22T19:19:24;43.30;;;33.60;;
7795;SDS011;3942;51.518;6.912;2023-06-22T19:24:29;33.50;;;25.00;;
7795;SDS011;3942;51.518;6.912;2023-06-22T19:29:33;26.85;;;21.50;;
7795;SDS011;3942;51.518;6.912;2023-06-22T19:34:35;24.33;;;18.02;;
7795;SDS011;3942;51.518;6.912;2023-06-22T19:39:37;20.67;;;15.05;;
7795;SDS011;3942;51.518;6.912;2023-06-22T19:44:41;32.55;;;18.77;;
7795;SDS011;3942;51.518;6.912;2023-06-22T19:49:44;15.38;;;12.48;;
7795;SDS011;3942;51.518;6.912;2023-06-22T19:54:47;18.38;;;13.15;;
7795;SDS011;3942;51.518;6.912;2023-06-22T19:59:51;15.73;;;13.35;;
7795;SDS011;3942;51.518;6.912;2023-06-22T20:04:53;16.55;;;13.02;;
7795;SDS011;3942;51.518;6.912;2023-06-22T20:10:04;15.15;;;12.10;;
7795;SDS011;3942;51.518;6.912;2023-06-22T20:15:14;19.90;;;16.55;;
7795;SDS011;3942;51.518;6.912;2023-06-22T20:20:20;52.38;;;38.47;;
7795;SDS011;3942;51.518;6.912;2023-06-22T20:25:23;43.70;;;31.88;;
7795;SDS011;3942;51.518;6.912;2023-06-22T20:30:27;32.70;;;23.55;;
7795;SDS011;3942;51.518;6.912;2023-06-22T20:35:29;28.30;;;20.77;;
7795;SDS011;3942;51.518;6.912;2023-06-22T20:40:31;24.70;;;18.25;;
7795;SDS011;3942;51.518;6.912;2023-06-22T20:45:35;27.33;;;21.25;;
7795;SDS011;3942;51.518;6.912;2023-06-22T20:50:39;24.02;;;18.02;;
7795;SDS011;3942;51.518;6.912;2023-06-22T20:55:41;19.73;;;15.02;;
7795;SDS011;3942;51.518;6.912;2023-06-22T21:00:45;18.77;;;15.40;;
7795;SDS011;3942;51.518;6.912;2023-06-22T21:05:47;38.83;;;28.58;;
7795;SDS011;3942;51.518;6.912;2023-06-22T21:10:49;23.40;;;17.92;;
7795;SDS011;3942;51.518;6.912;2023-06-22T21:15:55;18.58;;;14.15;;
7795;SDS011;3942;51.518;6.912;2023-06-22T21:20:57;17.20;;;12.88;;
7795;SDS011;3942;51.518;6.912;2023-06-22T21:25:59;28.20;;;22.95;;
7795;SDS011;3942;51.518;6.912;2023-06-22T21:31:02;23.83;;;20.13;;
7795;SDS011;3942;51.518;6.912;2023-06-22T21:36:04;17.83;;;15.82;;
7795;SDS011;3942;51.518;6.912;2023-06-22T21:41:06;32.13;;;25.83;;
7795;SDS011;3942;51.518;6.912;2023-06-22T21:46:10;24.25;;;12.35;;
7795;SDS011;3942;51.518;6.912;2023-06-22T21:51:12;14.88;;;11.55;;
7795;SDS011;3942;51.518;6.912;2023-06-22T21:56:14;17.08;;;13.48;;
7795;SDS011;3942;51.518;6.912;2023-06-22T22:01:18;20.70;;;14.55;;
7795;SDS011;3942;51.518;6.912;2023-06-22T22:06:20;14.20;;;11.25;;
7795;SDS011;3942;51.518;6.912;2023-06-22T22:11:23;16.63;;;12.35;;
7795;SDS011;3942;51.518;6.912;2023-06-22T22:16:26;14.48;;;10.68;;
7795;SDS011;3942;51.518;6.912;2023-06-22T22:21:28;12.48;;;10.45;;
7795;SDS011;3942;51.518;6.912;2023-06-22T22:26:31;13.75;;;10.73;;
7795;SDS011;3942;51.518;6.912;2023-06-22T22:31:36;14.13;;;10.68;;
7795;SDS011;3942;51.518;6.912;2023-06-22T22:36:39;15.60;;;11.30;;
7795;SDS011;3942;51.518;6.912;2023-06-22T22:41:41;18.13;;;12.60;;
7795;SDS011;3942;51.518;6.912;2023-06-22T22:46:44;16.35;;;12.25;;
7795;SDS011;3942;51.518;6.912;2023-06-22T22:51:46;16.30;;;13.10;;
7795;SDS011;3942;51.518;6.912;2023-06-22T22:56:48;20.17;;;13.75;;
7795;SDS011;3942;51.518;6.912;2023-06-22T23:01:52;20.05;;;14.38;;
7795;SDS011;3942;51.518;6.912;2023-06-22T23:06:54;21.67;;;15.02;;
7795;SDS011;3942;51.518;6.912;2023-06-22T23:11:56;19.95;;;15.02;;
7795;SDS011;3942;51.518;6.912;2023-06-22T23:17:00;18.70;;;14.80;;
7795;SDS011;3942;51.518;6.912;2023-06-22T23:22:03;19.27;;;14.02;;
7795;SDS011;3942;51.518;6.912;2023-06-22T23:27:05;18.42;;;14.68;;
7795;SDS011;3942;51.518;6.912;2023-06-22T23:32:10;18.23;;;13.98;;
7795;SDS011;3942;51.518;6.912;2023-06-22T23:37:13;17.20;;;13.77;;
7795;SDS011;3942;51.518;6.912;2023-06-22T23:42:15;18.95;;;13.32;;
7795;SDS011;3942;51.518;6.912;2023-06-22T23:47:18;19.85;;;13.98;;
7795;SDS011;3942;51.518;6.912;2023-06-22T23:52:20;17.85;;;13.43;;
7795;SDS011;3942;51.518;6.912;2023-06-22T23:57:22;21.65;;;16.55;;
